Time;durP1;ratioP1;P1;durP2;ratioP2;P2;SDS_P1;SDS_P2;PMS_P1;PMS_P2;Temp;Humidity;BMP_temperature;BMP_pressure;BME280_temperature;BME280_humidity;BME280_pressure;Samples;Min_cycle;Max_cycle;Signal;HPM_P1;HPM_P2
2024/02/23 00:00:54;;;;;;;;;61.00;49.00;;;;;12.56;71.70;101176.84;146604;587;46016;-73
2024/02/23 00:03:50;;;;;;;;;54.50;45.25;;;;;10.82;71.64;100877.78;146607;598;46021;-73
2024/02/23 00:06:46;;;;;;;;;60.50;48.25;;;;;10.77;71.38;100907.75;146602;595;47016;-72
2024/02/23 00:09:38;;;;;;;;;66.25;51.75;;;;;12.54;72.08;101169.78;146603;634;46020;-72
2024/02/23 00:12:40;;;;;;;;;66.00;50.75;;;;;12.53;71.75;101168.00;146600;645;48014;-73
2024/02/23 00:15:34;;;;;;;;;64.25;50.75;;;;;12.55;71.82;101171.53;146604;593;47020;-77
2024/02/23 00:18:37;;;;;;;;;66.00;51.00;;;;;12.55;71.39;101171.53;146603;604;46017;-76
2024/02/23 00:21:41;;;;;;;;;65.50;52.00;;;;;12.57;71.25;101168.22;146605;593;47010;-76
2024/02/23 00:24:36;;;;;;;;;60.25;48.00;;;;;12.58;71.02;101175.19;146602;586;47015;-77
2024/02/23 00:27:39;;;;;;;;;64.75;51.00;;;;;12.57;70.43;101180.31;146607;594;46010;-73
2024/02/23 00:30:34;;;;;;;;;63.50;49.50;;;;;12.46;71.23;101162.47;146602;564;47012;-77
2024/02/23 00:33:31;;;;;;;;;63.00;49.50;;;;;12.51;70.97;101174.81;146606;595;46029;-70
2024/02/23 00:36:42;;;;;;;;;58.50;46.50;;;;;12.45;70.55;101163.28;146604;626;46012;-69
2024/02/23 00:39:38;;;;;;;;;55.50;43.75;;;;;12.43;71.63;101156.22;146598;566;46915;-69
2024/02/23 00:42:35;;;;;;;;;54.50;43.25;;;;;12.39;71.51;101160.38;146604;606;46016;-71
2024/02/23 00:45:36;;;;;;;;;61.00;46.75;;;;;12.40;71.77;101156.09;146608;629;46010;-75
2024/02/23 00:48:49;;;;;;;;;52.50;42.25;;;;;12.43;71.29;101157.12;146601;564;46016;-74
2024/02/23 00:51:49;;;;;;;;;60.75;48.00;;;;;12.47;71.16;101156.44;146606;586;46010;-70
2024/02/23 00:54:57;;;;;;;;;64.75;51.00;;;;;12.51;71.73;101154.00;146601;581;47030;-70
2024/02/23 00:58:09;;;;;;;;;60.25;45.50;;;;;9.44;70.18;100624.25;146606;576;46010;-71
2024/02/23 01:01:14;;;;;;;;;59.25;46.50;;;;;12.55;71.59;101155.94;146604;624;46016;-72
2024/02/23 01:04:29;;;;;;;;;62.00;48.00;;;;;12.55;72.09;101161.12;146607;588;47020;-73
2024/02/23 01:07:29;;;;;;;;;49.75;37.25;;;;;12.54;73.20;101157.66;146603;620;47012;-76
2024/02/23 01:10:46;;;;;;;;;26.50;24.00;;;;;8.27;74.29;100397.19;146601;575;46020;-75
2024/02/23 01:13:44;;;;;;;;;28.75;23.50;;;;;12.72;74.19;101152.47;146597;591;47016;-75
2024/02/23 01:16:44;;;;;;;;;22.25;19.75;;;;;12.86;74.31;101140.12;146605;600;47010;-75
2024/02/23 01:19:49;;;;;;;;;23.75;20.50;;;;;13.01;73.83;101151.28;146603;611;46012;-76
2024/02/23 01:22:46;;;;;;;;;35.50;26.50;;;;;13.12;72.69;101146.59;146607;619;46010;-71
2024/02/23 01:25:46;;;;;;;;;44.50;35.75;;;;;13.20;70.88;101136.53;146603;569;46017;-71
2024/02/23 01:29:08;;;;;;;;;28.50;24.25;;;;;13.20;71.50;101134.81;146606;685;47010;-69
2024/02/23 01:32:03;;;;;;;;;39.50;32.25;;;;;13.22;70.20;101130.59;146601;628;47017;-70
2024/02/23 01:34:57;;;;;;;;;50.25;38.75;;;;;13.18;70.23;101124.34;146606;569;47010;-69
2024/02/23 01:38:09;;;;;;;;;51.50;41.00;;;;;13.14;69.90;101137.12;146599;618;47015;-70
2024/02/23 01:41:05;;;;;;;;;48.25;39.00;;;;;13.11;70.15;101126.56;146603;564;46010;-70
2024/02/23 01:44:05;;;;;;;;;49.00;40.00;;;;;13.05;69.99;101134.09;146601;566;47020;-70
2024/02/23 01:47:10;;;;;;;;;44.25;35.00;;;;;12.98;70.36;101127.69;146606;575;47012;-71
2024/02/23 01:50:17;;;;;;;;;54.00;43.00;;;;;12.81;70.47;101105.19;146602;710;46016;-72
2024/02/23 01:53:22;;;;;;;;;53.75;43.50;;;;;8.84;69.45;100424.44;146607;658;46020;-73
2024/02/23 01:56:20;;;;;;;;;51.75;41.75;;;;;12.85;70.60;101128.81;146605;564;47013;-72
2024/02/23 01:59:29;;;;;;;;;54.75;43.75;;;;;12.85;70.83;101123.62;146610;614;46020;-68
2024/02/23 02:02:22;;;;;;;;;24.25;21.50;;;;;12.81;73.76;101116.50;146603;598;46915;-70
2024/02/23 02:05:23;;;;;;;;;20.00;18.50;;;;;12.90;73.18;101118.66;146605;569;47021;-69
2024/02/23 02:08:35;;;;;;;;;21.00;17.00;;;;;13.05;71.00;101116.78;146602;608;47012;-70
2024/02/23 02:11:38;;;;;;;;;21.75;18.25;;;;;13.16;72.23;101104.25;146601;564;46021;-70
2024/02/23 02:14:38;;;;;;;;;48.00;37.75;;;;;13.24;71.13;101113.34;146628;565;46016;-71
2024/02/23 02:17:42;;;;;;;;;45.75;37.50;;;;;13.24;70.14;101102.00;146633;678;45020;-71
2024/02/23 02:20:45;;;;;;;;;44.25;36.25;;;;;13.20;69.94;101090.56;146633;624;46012;-71
2024/02/23 02:23:46;;;;;;;;;44.50;35.00;;;;;13.18;69.65;101097.41;146633;569;45023;-69
2024/02/23 02:26:58;;;;;;;;;47.50;36.75;;;;;13.16;69.66;101091.25;146629;589;45917;-70
2024/02/23 02:29:57;;;;;;;;;24.50;22.75;;;;;13.13;70.86;101070.25;146634;585;45030;-69
2024/02/23 02:33:14;;;;;;;;;32.00;29.25;;;;;13.14;70.17;101077.25;146631;617;46913;-79
2024/02/23 02:36:16;;;;;;;;;24.75;22.00;;;;;13.13;70.34;101078.97;146632;606;45020;-72
2024/02/23 02:39:21;;;;;;;;;21.75;20.75;;;;;13.15;72.97;101074.72;146630;610;46016;-75
2024/02/23 02:42:28;;;;;;;;;19.75;16.50;;;;;13.26;71.89;101077.84;146626;591;45021;-71
2024/02/23 02:45:54;;;;;;;;;19.75;17.75;;;;;9.27;70.46;100358.53;146633;611;45016;-72
2024/02/23 02:49:01;;;;;;;;;38.25;28.75;;;;;13.42;70.39;101083.75;146632;576;46010;-72
2024/02/23 02:51:54;;;;;;;;;42.50;33.50;;;;;13.46;70.02;101078.78;146632;571;45915;-72
2024/02/23 02:55:22;;;;;;;;;39.50;32.00;;;;;9.94;68.56;100476.72;146628;582;46010;-72
2024/02/23 02:58:23;;;;;;;;;51.50;38.25;;;;;13.37;68.99;101076.63;146632;622;46010;-74
2024/02/23 03:01:29;;;;;;;;;46.00;37.00;;;;;13.29;69.02;101070.19;146631;637;46010;-74
2024/02/23 03:04:35;;;;;;;;;48.00;38.75;;;;;13.21;69.50;101062.78;146630;611;46012;-74
2024/02/23 03:07:42;;;;;;;;;45.25;36.75;;;;;13.16;69.45;101073.00;146633;571;45020;-74
2024/02/23 03:10:45;;;;;;;;;46.00;37.25;;;;;13.12;70.17;101060.69;146629;590;46013;-75
2024/02/23 03:13:49;;;;;;;;;40.75;34.00;;;;;13.01;70.80;101065.38;146610;580;46010;-74
2024/02/23 03:16:49;;;;;;;;;51.00;40.00;;;;;12.90;71.41;101072.69;146601;599;47012;-73
2024/02/23 03:19:44;;;;;;;;;30.50;26.00;;;;;12.83;72.13;101047.19;146609;637;46020;-77
2024/02/23 03:22:41;;;;;;;;;44.00;35.25;;;;;12.86;71.43;101055.13;146607;574;46016;-75
2024/02/23 03:25:40;;;;;;;;;45.75;35.25;;;;;12.86;71.20;101069.84;146607;566;46029;-76
2024/02/23 03:28:37;;;;;;;;;43.50;36.50;;;;;12.85;72.40;101071.56;146604;605;46016;-76
2024/02/23 03:31:35;;;;;;;;;46.75;36.50;;;;;12.80;73.52;101066.97;146605;565;47020;-77
2024/02/23 03:34:40;;;;;;;;;53.75;41.00;;;;;12.76;72.78;101070.25;146602;626;46016;-81
2024/02/23 03:37:43;;;;;;;;;47.25;38.25;;;;;12.71;73.17;101070.03;146606;577;46020;-79
2024/02/23 03:40:39;;;;;;;;;50.25;38.75;;;;;12.67;73.37;101055.97;146601;614;47012;-81
2024/02/23 03:43:48;;;;;;;;;;;;;;;;;;;;;
2024/02/23 03:46:57;;;;;;;;;44.50;35.00;;;;;12.61;72.57;101063.47;146604;654;46017;-75
2024/02/23 03:50:19;;;;;;;;;43.00;34.75;;;;;8.78;71.39;100404.34;146605;616;46020;-71
2024/02/23 03:53:19;;;;;;;;;55.25;45.50;;;;;12.57;72.24;101071.97;146604;612;46018;-71
2024/02/23 03:56:18;;;;;;;;;63.75;48.50;;;;;12.55;72.35;101073.59;146606;584;46010;-71
2024/02/23 03:59:11;;;;;;;;;48.75;40.50;;;;;12.50;72.13;101069.88;146604;594;46915;-73
2024/02/23 04:02:07;;;;;;;;;46.00;37.25;;;;;12.44;72.31;101065.28;146608;660;46010;-70
2024/02/23 04:05:10;;;;;;;;;50.25;41.75;;;;;12.40;72.23;101071.16;146594;609;47914;-70
2024/02/23 04:08:10;;;;;;;;;64.25;50.00;;;;;12.32;71.84;101067.25;146603;625;47010;-69
2024/02/23 04:11:11;;;;;;;;;41.00;35.00;;;;;11.02;72.91;100861.53;146600;606;46022;-69
2024/02/23 04:14:07;;;;;;;;;32.25;28.00;;;;;12.08;73.44;101066.91;146600;594;46010;-72
2024/02/23 04:17:03;;;;;;;;;40.50;31.25;;;;;11.95;73.06;101067.13;146604;601;46017;-76
2024/02/23 04:20:16;;;;;;;;;34.25;31.00;;;;;11.85;72.52;101062.28;146607;599;46010;-75
2024/02/23 04:23:11;;;;;;;;;28.50;25.00;;;;;11.83;73.31;101059.53;146603;659;46012;-71
2024/02/23 04:26:13;;;;;;;;;53.00;41.75;;;;;11.82;73.31;101064.69;146607;623;47020;-72
2024/02/23 04:29:08;;;;;;;;;32.25;28.75;;;;;11.80;73.05;101067.19;146602;565;46915;-79
2024/02/23 04:32:04;;;;;;;;;28.25;25.50;;;;;11.78;73.15;101064.53;146607;608;46026;-79
2024/02/23 04:35:02;;;;;;;;;22.25;20.00;;;;;11.77;73.20;101067.03;146602;595;47012;-78
2024/02/23 04:37:58;;;;;;;;;20.00;18.75;;;;;11.82;73.14;101080.28;146602;564;47017;-79
2024/02/23 04:40:56;;;;;;;;;35.00;31.50;;;;;11.81;72.89;101074.19;146602;570;46915;-75
2024/02/23 04:44:02;;;;;;;;;24.00;19.75;;;;;11.80;73.83;101077.56;146600;589;46012;-74
2024/02/23 04:46:58;;;;;;;;;22.00;20.75;;;;;11.86;77.23;101080.53;146603;594;46017;-73
2024/02/23 04:50:06;;;;;;;;;23.50;21.00;;;;;12.01;79.19;101080.44;146603;600;47010;-74
2024/02/23 04:53:02;;;;;;;;;23.00;20.75;;;;;11.77;80.59;101007.28;146604;611;46039;-73
2024/02/23 04:56:10;;;;;;;;;19.25;18.00;;;;;12.35;80.04;101072.62;146606;593;46021;-73
2024/02/23 04:59:06;;;;;;;;;19.75;18.25;;;;;10.67;78.02;100760.25;146599;593;47012;-75
2024/02/23 05:02:37;;;;;;;;;20.50;17.25;;;;;12.58;76.73;101078.94;146606;580;46021;-73
2024/02/23 05:05:36;;;;;;;;;23.50;18.00;;;;;12.67;76.16;101087.19;146599;579;46012;-75
2024/02/23 05:08:34;;;;;;;;;26.75;21.50;;;;;12.73;75.19;101088.31;146607;592;46011;-74
2024/02/23 05:11:29;;;;;;;;;25.25;20.00;;;;;12.71;74.58;101085.66;146603;599;47016;-74
2024/02/23 05:14:38;;;;;;;;;25.00;20.25;;;;;12.77;73.79;101103.25;146600;594;47010;-80
2024/02/23 05:17:31;;;;;;;;;25.75;23.50;;;;;12.78;73.83;101108.53;146601;606;47012;-77
2024/02/23 05:20:26;;;;;;;;;23.25;20.00;;;;;12.79;74.00;101102.50;146610;610;46020;-78
2024/02/23 05:23:24;;;;;;;;;28.00;24.25;;;;;12.79;74.88;101102.50;146603;639;46017;-73
2024/02/23 05:26:18;;;;;;;;;26.50;24.50;;;;;12.77;74.43;101104.13;146605;582;47010;-72
2024/02/23 05:29:23;;;;;;;;;27.25;22.00;;;;;12.76;74.52;101115.37;146604;602;46016;-72
2024/02/23 05:32:19;;;;;;;;;26.00;22.75;;;;;12.74;74.12;101104.00;146606;653;46011;-72
2024/02/23 05:35:28;;;;;;;;;28.25;24.25;;;;;8.79;73.58;100431.97;146601;685;46016;-73
2024/02/23 05:38:33;;;;;;;;;30.75;25.50;;;;;12.66;74.42;101119.22;146604;573;46020;-73
2024/02/23 05:41:38;;;;;;;;;33.00;27.25;;;;;12.64;75.30;101118.25;146599;595;47942;-70
2024/02/23 05:44:35;;;;;;;;;32.50;30.00;;;;;12.68;76.07;101121.94;146604;619;46020;-71
2024/02/23 05:47:37;;;;;;;;;30.50;29.25;;;;;13.16;79.96;101119.88;146606;607;46017;-70
2024/02/23 05:50:36;;;;;;;;;43.00;35.25;;;;;14.22;82.61;101115.13;146609;576;46020;-70
2024/02/23 05:53:37;;;;;;;;;39.00;34.00;;;;;15.42;77.73;101119.94;146601;578;47016;-84
2024/02/23 05:56:33;;;;;;;;;45.75;34.50;;;;;16.59;67.34;101115.44;146602;604;47020;-84
2024/02/23 05:59:28;;;;;;;;;49.00;38.75;;;;;17.58;65.00;101119.41;146601;565;47012;-76
2024/02/23 06:02:32;;;;;;;;;46.75;37.50;;;;;18.53;58.69;101113.22;146604;566;46021;-74
2024/02/23 06:05:28;;;;;;;;;47.75;37.00;;;;;19.29;56.30;101122.06;146604;625;46016;-75
2024/02/23 06:08:31;;;;;;;;;44.75;36.25;;;;;19.94;56.67;101108.53;146608;579;46020;-77
2024/02/23 06:11:57;;;;;;;;;45.25;35.25;;;;;20.74;54.64;101114.34;146602;592;46034;-74
2024/02/23 06:14:58;;;;;;;;;47.25;38.75;;;;;20.11;49.09;100885.06;146630;620;44021;-72
2024/02/23 06:17:55;;;;;;;;;48.50;39.00;;;;;21.82;50.08;101114.09;146634;714;45478;-74
2024/02/23 06:20:51;;;;;;;;;48.75;39.00;;;;;22.14;47.59;101116.19;146635;638;45010;-73
2024/02/23 06:23:58;;;;;;;;;48.75;38.25;;;;;22.36;47.61;101125.25;146636;625;44017;-71
2024/02/23 06:26:59;;;;;;;;;56.75;42.75;;;;;22.54;48.16;101137.75;146633;612;45010;-70
2024/02/23 06:30:02;;;;;;;;;54.25;41.75;;;;;22.67;49.18;101128.16;146631;737;45915;-70
2024/02/23 06:33:03;;;;;;;;;55.25;43.00;;;;;22.65;46.32;101135.16;146629;600;46010;-70
2024/02/23 06:36:18;;;;;;;;;47.25;38.50;;;;;22.35;48.90;101139.31;146628;616;46014;-70
2024/02/23 06:39:18;;;;;;;;;52.25;41.00;;;;;22.21;47.43;101138.28;146635;572;45021;-71
2024/02/23 06:42:13;;;;;;;;;50.50;40.00;;;;;21.98;47.60;101141.53;146629;624;46012;-70
2024/02/23 06:45:07;;;;;;;;;41.75;35.25;;;;;21.63;47.38;101139.38;146628;648;45021;-69
2024/02/23 06:48:16;;;;;;;;;42.75;34.00;;;;;21.06;50.48;101142.97;146631;599;45914;-74
2024/02/23 06:51:11;;;;;;;;;24.75;22.50;;;;;20.47;50.41;101149.00;146634;579;45020;-79
2024/02/23 06:54:10;;;;;;;;;25.75;24.00;;;;;19.77;50.98;101134.50;146628;590;47012;-73
2024/02/23 06:57:08;;;;;;;;;29.50;26.50;;;;;19.09;54.73;101151.41;146625;578;46914;-73
2024/02/23 07:00:14;;;;;;;;;37.00;30.75;;;;;18.69;54.80;101137.31;146631;666;45915;-74
2024/02/23 07:03:10;;;;;;;;;42.25;32.00;;;;;18.37;55.79;101136.47;146632;588;45020;-77
2024/02/23 07:06:12;;;;;;;;;33.75;31.25;;;;;18.08;57.21;101140.06;146631;620;45015;-72
2024/02/23 07:09:23;;;;;;;;;27.00;23.25;;;;;17.89;59.54;101141.28;146632;631;46010;-71
2024/02/23 07:12:16;;;;;;;;;31.50;26.25;;;;;17.87;58.95;101138.59;146625;585;46016;-69
2024/02/23 07:15:15;;;;;;;;;30.25;25.00;;;;;17.91;56.36;101145.75;146602;580;46020;-66
2024/02/23 07:18:15;;;;;;;;;19.50;18.50;;;;;17.86;55.91;101131.59;146605;627;46016;-71
2024/02/23 07:21:15;;;;;;;;;28.00;26.75;;;;;17.72;57.92;101143.38;146606;614;46010;-69
2024/02/23 07:24:09;;;;;;;;;23.75;22.75;;;;;17.72;56.90;101141.63;146600;653;46036;-72
2024/02/23 07:27:08;;;;;;;;;19.00;19.00;;;;;17.73;55.66;101143.44;146605;637;47020;-77
2024/02/23 07:30:04;;;;;;;;;19.75;19.50;;;;;17.64;55.83;101135.31;146602;570;46013;-78
2024/02/23 07:33:04;;;;;;;;;21.75;18.50;;;;;17.57;55.95;101145.56;146603;583;47020;-72
2024/02/23 07:36:08;;;;;;;;;14.00;14.00;;;;;17.52;57.09;101148.94;146605;566;46015;-76
2024/02/23 07:39:10;;;;;;;;;18.00;18.00;;;;;17.45;56.67;101154.84;146605;563;46029;-72
2024/02/23 07:42:21;;;;;;;;;20.75;20.00;;;;;17.38;56.29;101141.50;146606;696;46016;-73
2024/02/23 07:45:29;;;;;;;;;18.25;17.50;;;;;17.26;56.23;101137.69;146599;572;47010;-86
2024/02/23 07:48:29;;;;;;;;;27.00;22.75;;;;;17.32;56.50;101139.59;146603;581;47016;-83
2024/02/23 07:51:21;;;;;;;;;24.00;22.50;;;;;17.42;58.19;101140.78;146606;583;46033;-79
2024/02/23 07:54:25;;;;;;;;;20.25;17.50;;;;;17.61;57.74;101142.19;146604;601;46016;-78
2024/02/23 07:57:26;;;;;;;;;21.00;19.00;;;;;17.85;57.53;101124.59;146607;586;47010;-78
2024/02/23 08:00:28;;;;;;;;;20.50;18.75;;;;;18.07;56.73;101126.06;146601;570;47012;-77
2024/02/23 08:03:27;;;;;;;;;24.75;20.75;;;;;18.13;55.85;101131.47;146606;602;46010;-76
2024/02/23 08:06:24;;;;;;;;;20.00;17.25;;;;;18.09;55.26;101136.59;146604;579;46043;-80
2024/02/23 08:09:22;;;;;;;;;14.50;12.50;;;;;18.07;56.02;101135.63;146609;575;46020;-75
2024/02/23 08:12:21;;;;;;;;;15.25;13.50;;;;;18.08;52.33;101133.06;146604;605;46012;-79
2024/02/23 08:15:31;;;;;;;;;16.75;15.50;;;;;14.38;55.42;100484.47;146602;618;46020;-78
2024/02/23 08:18:24;;;;;;;;;19.50;16.25;;;;;18.09;54.13;101134.84;146599;614;47012;-75
2024/02/23 08:21:20;;;;;;;;;20.75;19.00;;;;;18.12;55.64;101129.69;146605;608;47010;-78
2024/02/23 08:24:24;;;;;;;;;17.25;15.25;;;;;18.21;55.58;101142.16;146602;643;46014;-77
2024/02/23 08:27:28;;;;;;;;;21.00;18.00;;;;;18.30;55.32;101139.78;146605;574;47010;-77
2024/02/23 08:30:27;;;;;;;;;19.50;17.75;;;;;18.34;53.64;101139.00;146604;667;46914;-77
2024/02/23 08:33:29;;;;;;;;;21.00;17.25;;;;;16.35;52.80;100831.97;146606;569;46010;-76
2024/02/23 08:36:32;;;;;;;;;18.50;14.50;;;;;18.22;54.12;101136.06;146603;599;46014;-76
2024/02/23 08:39:33;;;;;;;;;19.75;19.75;;;;;18.17;53.87;101138.56;146605;565;47020;-76
2024/02/23 08:42:30;;;;;;;;;17.00;17.00;;;;;18.18;54.02;101140.34;146601;659;46016;-76
2024/02/23 08:45:34;;;;;;;;;18.50;18.00;;;;;18.23;54.07;101135.22;146600;654;46010;-76
2024/02/23 08:48:33;;;;;;;;;14.50;13.00;;;;;18.24;53.57;101139.63;146601;671;46016;-76
2024/02/23 08:51:38;;;;;;;;;16.00;14.00;;;;;18.24;53.53;101132.63;146604;566;47010;-72
2024/02/23 08:54:39;;;;;;;;;19.25;14.00;;;;;18.28;52.72;101135.34;146602;696;47012;-71
2024/02/23 08:57:36;;;;;;;;;20.50;15.00;;;;;18.36;52.51;101134.69;146604;579;46032;-77
2024/02/23 09:00:36;;;;;;;;;23.50;20.00;;;;;18.37;53.00;101120.72;146601;609;46014;-77
2024/02/23 09:03:36;;;;;;;;;22.00;18.75;;;;;18.45;53.34;101136.69;146605;567;47046;-75
2024/02/23 09:06:59;;;;;;;;;19.25;18.25;;;;;18.57;53.28;101139.63;146606;627;46016;-78
2024/02/23 09:10:12;;;;;;;;;17.50;16.00;;;;;18.60;52.86;101144.94;146607;607;46010;-74
2024/02/23 09:13:05;;;;;;;;;19.00;15.00;;;;;18.57;52.31;101137.00;146604;595;47017;-77
2024/02/23 09:16:01;;;;;;;;;17.75;17.75;;;;;18.73;52.19;101145.28;146602;632;46020;-76
2024/02/23 09:18:59;;;;;;;;;18.50;15.50;;;;;18.84;51.89;101147.31;146602;643;47015;-74
2024/02/23 09:22:01;;;;;;;;;19.25;18.00;;;;;18.89;50.70;101150.06;146609;570;46010;-73
2024/02/23 09:25:06;;;;;;;;;16.00;14.00;;;;;18.88;51.76;101143.91;146604;575;47012;-76
2024/02/23 09:28:04;;;;;;;;;18.00;17.00;;;;;18.87;52.06;101139.50;146605;633;46021;-73
2024/02/23 09:31:33;;;;;;;;;26.75;24.75;;;;;18.96;52.08;101143.22;146600;669;46014;-73
2024/02/23 09:34:25;;;;;;;;;19.75;17.75;;;;;19.02;50.94;101141.59;146608;619;46010;-78
2024/02/23 09:37:22;;;;;;;;;12.25;12.00;;;;;18.95;49.55;101131.81;146606;726;46014;-76
2024/02/23 09:40:20;;;;;;;;;15.25;13.00;;;;;18.80;50.62;101141.94;146609;664;46020;-75
2024/02/23 09:43:24;;;;;;;;;11.00;11.00;;;;;18.72;51.10;101133.84;146603;572;46915;-75
2024/02/23 09:46:32;;;;;;;;;15.50;13.50;;;;;18.87;49.87;101128.09;146601;670;46020;-77
2024/02/23 09:49:27;;;;;;;;;19.75;16.50;;;;;19.14;48.82;101133.13;146603;628;46017;-77
2024/02/23 09:52:23;;;;;;;;;20.25;15.00;;;;;16.86;49.05;100724.34;146606;600;46020;-74
2024/02/23 09:55:18;;;;;;;;;14.25;12.25;;;;;19.33;49.26;101116.00;146603;631;47015;-75
2024/02/23 09:58:29;;;;;;;;;12.25;11.75;;;;;19.36;49.50;101124.84;146603;569;48010;-77
2024/02/23 10:02:00;;;;;;;;;12.75;11.50;;;;;19.25;49.79;101121.13;146604;594;46031;-76
2024/02/23 10:05:00;;;;;;;;;10.25;9.50;;;;;19.03;49.72;101122.34;146606;594;46021;-75
2024/02/23 10:08:14;;;;;;;;;11.50;9.75;;;;;18.80;50.48;101127.06;146606;618;47016;-76
2024/02/23 10:11:15;;;;;;;;;13.00;12.00;;;;;18.36;52.03;101133.81;146614;683;46010;-75
2024/02/23 10:14:56;;;;;;;;;13.75;12.25;;;;;14.28;54.16;100538.94;146604;628;46016;-72
2024/02/23 10:18:07;;;;;;;;;11.50;10.50;;;;;14.15;55.39;100499.41;146601;634;47010;-75
2024/02/23 10:21:06;;;;;;;;;13.00;11.75;;;;;17.73;53.83;101129.44;146602;570;47012;-71
2024/02/23 10:24:11;;;;;;;;;13.75;11.75;;;;;17.57;55.82;101128.13;146610;600;46020;-77
2024/02/23 10:27:22;;;;;;;;;14.50;12.75;;;;;17.52;56.65;101130.59;146604;578;46917;-74
2024/02/23 10:30:21;;;;;;;;;18.75;15.75;;;;;17.45;57.46;101125.13;146604;630;47020;-78
2024/02/23 10:33:18;;;;;;;;;15.50;15.00;;;;;17.33;58.77;101112.53;146603;573;46017;-73
2024/02/23 10:36:22;;;;;;;;;17.25;15.75;;;;;17.30;58.60;101112.44;146607;597;46020;-75
2024/02/23 10:39:25;;;;;;;;;;;;;;;;;;;;;
2024/02/23 10:42:30;;;;;;;;;17.00;15.50;;;;;17.59;57.58;101110.69;146604;569;47012;-78
2024/02/23 10:45:26;;;;;;;;;14.25;11.75;;;;;17.61;56.23;101122.09;146607;564;46915;-76
2024/02/23 10:48:34;;;;;;;;;15.75;14.75;;;;;17.55;57.22;101116.69;146598;614;47013;-74
2024/02/23 10:51:48;;;;;;;;;;;;;;;;;;;;;
2024/02/23 10:54:44;;;;;;;;;13.00;12.00;;;;;17.54;56.64;101110.56;146607;658;46012;-72
2024/02/23 10:57:43;;;;;;;;;11.00;11.00;;;;;17.70;55.83;101105.75;146606;615;46016;-77
2024/02/23 11:00:48;;;;;;;;;11.25;10.75;;;;;17.91;55.89;101092.34;146607;600;46010;-77
2024/02/23 11:03:46;;;;;;;;;16.25;12.75;;;;;18.04;54.57;101081.37;146604;630;46013;-72
2024/02/23 11:07:04;;;;;;;;;13.75;11.00;;;;;17.98;53.37;101047.09;146604;604;47010;-72
2024/02/23 11:10:05;;;;;;;;;12.00;10.75;;;;;18.44;52.01;101085.91;146607;615;46016;-79
2024/02/23 11:13:11;;;;;;;;;8.25;8.25;;;;;18.55;50.93;101090.53;146605;735;47021;-75
2024/02/23 11:16:33;;;;;;;;;12.75;12.00;;;;;18.48;53.32;101081.63;146609;611;47012;-78
2024/02/23 11:19:50;;;;;;;;;10.25;10.00;;;;;18.48;54.56;101089.50;146602;594;46021;-77
2024/02/23 11:22:48;;;;;;;;;16.25;12.25;;;;;18.77;51.54;101071.81;146601;616;47927;-75
2024/02/23 11:25:45;;;;;;;;;15.25;15.25;;;;;18.93;51.62;101079.19;146603;572;47010;-77
2024/02/23 11:28:54;;;;;;;;;13.50;10.25;;;;;18.99;49.12;101075.84;146608;575;47016;-75
2024/02/23 11:31:59;;;;;;;;;9.75;9.00;;;;;18.97;49.47;101063.50;146608;570;46010;-74
2024/02/23 11:35:07;;;;;;;;;14.00;10.00;;;;;19.01;48.74;101063.63;146606;720;47012;-74
2024/02/23 11:38:11;;;;;;;;;10.25;10.25;;;;;19.11;49.69;101069.97;146608;604;46025;-73
2024/02/23 11:41:16;;;;;;;;;9.00;8.00;;;;;19.24;50.00;101072.00;146601;691;48017;-79
2024/02/23 11:44:14;;;;;;;;;10.50;8.50;;;;;18.55;49.00;100930.34;146613;587;47010;-78
2024/02/23 11:47:18;;;;;;;;;13.75;11.50;;;;;19.31;47.59;101050.22;146610;620;46012;-74
2024/02/23 11:50:20;;;;;;;;;9.75;6.50;;;;;19.37;47.78;101060.87;146601;652;47010;-79
2024/02/23 11:53:25;;;;;;;;;7.50;7.00;;;;;19.13;47.66;101066.53;146607;578;47014;-77
2024/02/23 11:56:18;;;;;;;;;8.00;8.00;;;;;18.90;47.97;101050.22;146613;678;46020;-75
2024/02/23 11:59:15;;;;;;;;;10.00;10.00;;;;;18.76;49.12;101056.03;146609;679;46034;-74
2024/02/23 12:02:20;;;;;;;;;9.25;9.25;;;;;18.66;49.97;101058.41;146602;602;46010;-79
2024/02/23 12:05:16;;;;;;;;;7.75;7.75;;;;;18.60;49.15;101053.03;146608;667;46016;-78
2024/02/23 12:08:10;;;;;;;;;14.50;14.00;;;;;18.52;48.96;101051.06;146615;563;46026;-78
2024/02/23 12:11:28;;;;;;;;;9.50;8.75;;;;;18.45;49.80;101050.91;146600;701;47014;-77
2024/02/23 12:14:21;;;;;;;;;8.00;7.75;;;;;18.44;49.23;101037.72;146610;569;47012;-74
2024/02/23 12:17:19;;;;;;;;;5.25;5.25;;;;;18.43;48.50;101034.22;146609;584;47013;-76
2024/02/23 12:20:37;;;;;;;;;9.25;7.75;;;;;18.48;48.25;101039.59;146601;628;46010;-75
2024/02/23 12:23:52;;;;;;;;;16.50;15.25;;;;;18.60;50.71;101039.91;146609;573;46017;-77
2024/02/23 12:26:45;;;;;;;;;10.25;9.75;;;;;18.72;48.50;101044.53;146608;585;47010;-72
2024/02/23 12:29:39;;;;;;;;;9.00;8.00;;;;;18.79;48.23;101041.25;146610;599;46016;-74
2024/02/23 12:32:45;;;;;;;;;7.00;5.25;;;;;18.81;48.87;101033.37;146615;676;46021;-78
2024/02/23 12:36:03;;;;;;;;;10.50;8.50;;;;;18.84;47.54;101034.31;146610;581;47014;-78
2024/02/23 12:39:11;;;;;;;;;8.75;6.75;;;;;18.81;48.06;101034.25;146616;573;46020;-79
2024/02/23 12:42:07;;;;;;;;;7.33;7.33;;;;;18.87;48.49;101034.41;146609;604;46012;-76
2024/02/23 12:45:14;;;;;;;;;9.00;8.00;;;;;19.01;49.34;101039.09;146605;669;47020;-74
2024/02/23 12:48:06;;;;;;;;;6.00;5.00;;;;;19.10;47.73;101013.00;146608;569;46014;-77
2024/02/23 12:51:02;;;;;;;;;8.00;8.00;;;;;19.40;47.33;101015.34;146603;613;46020;-77
2024/02/23 12:54:05;;;;;;;;;6.67;5.67;;;;;19.68;49.32;101016.81;146603;656;48012;-76
2024/02/23 12:56:57;;;;;;;;;9.00;7.67;;;;;19.89;46.73;101016.31;146613;673;47010;-77
2024/02/23 12:59:58;;;;;;;;;6.50;6.50;;;;;20.02;45.97;101025.31;146606;582;46016;-73
2024/02/23 13:02:51;;;;;;;;;6.50;6.50;;;;;20.06;46.06;101020.16;146614;636;47021;-75
2024/02/23 13:05:53;;;;;;;;;9.67;6.00;;;;;20.04;45.16;101019.22;146612;647;46016;-75
2024/02/23 13:09:04;;;;;;;;;5.50;5.50;;;;;20.11;45.88;101016.69;146611;628;47021;-77
2024/02/23 13:11:56;;;;;;;;;5.75;5.75;;;;;20.19;46.34;101010.72;146611;578;47012;-76
2024/02/23 13:14:50;;;;;;;;;7.75;6.50;;;;;20.28;45.07;101034.56;146613;577;47010;-77
2024/02/23 13:17:46;;;;;;;;;7.75;7.25;;;;;20.35;45.42;101003.06;146609;565;47012;-76
2024/02/23 13:20:41;;;;;;;;;8.25;6.75;;;;;20.35;43.99;100998.66;146606;579;48010;-77
2024/02/23 13:23:37;;;;;;;;;6.75;6.00;;;;;20.29;43.70;100999.44;146605;658;47012;-76
2024/02/23 13:26:35;;;;;;;;;9.00;7.33;;;;;20.24;44.09;101005.50;146617;563;45021;-76
2024/02/23 13:29:36;;;;;;;;;6.33;5.67;;;;;20.18;43.52;100994.88;146614;611;47012;-73
2024/02/23 13:32:33;;;;;;;;;5.00;4.00;;;;;20.08;45.04;100997.34;146616;644;46010;-77
2024/02/23 13:35:28;;;;;;;;;6.33;5.33;;;;;19.96;44.48;100993.63;146616;574;46913;-77
2024/02/23 13:38:37;;;;;;;;;7.75;5.00;;;;;19.84;45.06;101002.19;146618;579;46010;-77
2024/02/23 13:41:34;;;;;;;;;5.25;5.25;;;;;19.68;43.77;101001.03;146607;589;46016;-75
2024/02/23 13:44:38;;;;;;;;;5.67;5.67;;;;;19.54;45.08;100992.84;146617;564;46010;-76
2024/02/23 13:47:40;;;;;;;;;5.00;5.00;;;;;19.37;45.48;100994.25;146615;569;46012;-73
2024/02/23 13:50:35;;;;;;;;;11.00;8.25;;;;;19.27;46.14;100987.06;146600;566;46020;-78
2024/02/23 13:53:28;;;;;;;;;7.75;7.75;;;;;19.30;46.77;100980.09;146609;590;46017;-77
2024/02/23 13:56:42;;;;;;;;;7.50;7.00;;;;;16.18;46.02;100397.22;146614;640;46010;-78